createdAt,value
2023-05-11T00:00:06.000Z,0
2023-05-11T00:01:23.064Z,0
2023-05-11T00:02:39.260Z,0
2023-05-11T00:03:55.000Z,0
2023-05-11T00:05:11.639Z,0
2023-05-11T00:06:09.849Z,0
2023-05-11T00:07:44.000Z,0
2023-05-11T00:09:00.000Z,0
2023-05-11T00:10:16.000Z,0
2023-05-11T00:11:32.626Z,0
2023-05-11T00:13:14.000Z,0
2023-05-11T00:13:46.044Z,0
2023-05-11T00:15:20.240Z,0
2023-05-11T00:16:18.435Z,0
2023-05-11T00:17:52.631Z,0
2023-05-11T00:19:08.814Z,0
2023-05-11T00:20:25.014Z,0
2023-05-11T00:21:41.218Z,0
2023-05-11T00:22:39.414Z,0
2023-05-11T00:24:13.597Z,0
2023-05-11T00:25:29.000Z,0
2023-05-11T00:26:28.000Z,0
2023-05-11T00:28:02.196Z,0
2023-05-11T00:29:18.000Z,0
2023-05-11T00:30:34.588Z,0
2023-05-11T00:31:50.780Z,0
2023-05-11T00:33:05.995Z,0
2023-05-11T00:34:22.190Z,0
2023-05-11T00:35:38.374Z,0
2023-05-11T00:36:54.576Z,0
2023-05-11T00:38:10.000Z,0
2023-05-11T00:39:08.973Z,0
2023-05-11T00:40:43.000Z,0
2023-05-11T00:41:59.352Z,0
2023-05-11T00:43:15.545Z,0
2023-05-11T00:44:31.754Z,0
2023-05-11T00:45:47.000Z,0
2023-05-11T00:47:04.000Z,0
2023-05-11T00:48:20.000Z,0
2023-05-11T00:49:36.000Z,0
2023-05-11T00:50:52.000Z,0
2023-05-11T00:51:50.926Z,0
2023-05-11T00:53:25.000Z,0
2023-05-11T00:54:41.314Z,0
2023-05-11T00:55:57.000Z,0
2023-05-11T00:56:55.707Z,0
2023-05-11T00:58:28.916Z,0
2023-05-11T00:59:45.000Z,0
2023-05-11T01:01:01.311Z,0
2023-05-11T01:02:17.503Z,0
2023-05-11T01:03:33.000Z,0
2023-05-11T01:04:49.000Z,0
2023-05-11T01:06:06.085Z,0
2023-05-11T01:07:22.000Z,0
2023-05-11T01:08:38.000Z,0
2023-05-11T01:09:36.677Z,0
2023-05-11T01:11:10.873Z,0
2023-05-11T01:12:27.068Z,0
2023-05-11T01:13:43.264Z,0
2023-05-11T01:14:59.000Z,0
2023-05-11T01:16:15.000Z,0
2023-05-11T01:17:31.838Z,0
2023-05-11T01:18:48.044Z,0
2023-05-11T01:19:46.239Z,0
2023-05-11T01:21:19.446Z,0
2023-05-11T01:22:35.629Z,0
2023-05-11T01:23:51.842Z,0
2023-05-11T01:25:08.000Z,0
2023-05-11T01:26:24.233Z,0
2023-05-11T01:27:40.000Z,0
2023-05-11T01:28:56.612Z,0
2023-05-11T01:30:12.795Z,0
2023-05-11T01:31:29.000Z,0
2023-05-11T01:32:45.194Z,0
2023-05-11T01:34:01.390Z,0
2023-05-11T01:34:59.584Z,0
2023-05-11T01:36:33.769Z,0
2023-05-11T01:37:49.970Z,0
2023-05-11T01:39:06.162Z,0
2023-05-11T01:40:22.337Z,0
2023-05-11T01:41:37.000Z,0
2023-05-11T01:42:53.000Z,0
2023-05-11T01:44:09.000Z,0
2023-05-11T01:45:26.134Z,0
2023-05-11T01:46:42.000Z,0
2023-05-11T01:47:58.000Z,0
2023-05-11T01:49:14.000Z,0
2023-05-11T01:50:30.917Z,0
2023-05-11T01:51:47.102Z,0
2023-05-11T01:53:03.291Z,0
2023-05-11T01:54:01.496Z,0
2023-05-11T01:55:17.689Z,0
2023-05-11T01:56:51.000Z,0
2023-05-11T01:58:08.057Z,0
2023-05-11T01:59:24.268Z,0
2023-05-11T02:00:21.477Z,0
2023-05-11T02:02:22.000Z,0
2023-05-11T02:03:11.000Z,0
2023-05-11T02:04:28.057Z,0
2023-05-11T02:05:44.248Z,0
2023-05-11T02:07:00.427Z,0
2023-05-11T02:08:16.636Z,0
2023-05-11T02:09:32.000Z,0
2023-05-11T02:10:31.022Z,0
2023-05-11T02:12:05.000Z,0
2023-05-11T02:13:21.000Z,0
2023-05-11T02:14:37.582Z,0
2023-05-11T02:15:53.000Z,0
2023-05-11T02:17:09.000Z,0
2023-05-11T02:18:26.168Z,0
2023-05-11T02:19:42.494Z,0
2023-05-11T02:20:40.686Z,0
2023-05-11T02:22:14.000Z,0
2023-05-11T02:23:31.061Z,0
2023-05-11T02:24:47.000Z,0
2023-05-11T02:25:45.458Z,0
2023-05-11T02:27:19.000Z,0
2023-05-11T02:28:35.000Z,0
2023-05-11T02:29:52.031Z,0
2023-05-11T02:31:08.224Z,0
2023-05-11T02:32:24.000Z,0
2023-05-11T02:33:22.617Z,0
2023-05-11T02:34:56.000Z,0
2023-05-11T02:35:55.003Z,0
2023-05-11T02:37:29.196Z,0
2023-05-11T02:38:45.372Z,0
2023-05-11T02:40:00.000Z,0
2023-05-11T02:41:16.000Z,0
2023-05-11T02:42:32.000Z,0
2023-05-11T02:43:49.177Z,0
2023-05-11T02:45:05.364Z,0
2023-05-11T02:46:03.563Z,0
2023-05-11T02:47:37.000Z,0
2023-05-11T02:48:53.939Z,0
2023-05-11T02:50:10.000Z,0
2023-05-11T02:51:08.335Z,0
2023-05-11T02:52:42.513Z,0
2023-05-11T02:53:58.000Z,0
2023-05-11T02:55:14.000Z,0
2023-05-11T02:56:31.091Z,0
2023-05-11T02:57:46.000Z,0
2023-05-11T02:58:44.509Z,0
2023-05-11T03:00:18.703Z,0
2023-05-11T03:02:01.000Z,0
2023-05-11T03:02:51.000Z,0
2023-05-11T03:03:49.282Z,0
2023-05-11T03:05:23.000Z,0
2023-05-11T03:06:39.668Z,0
2023-05-11T03:07:55.855Z,0
2023-05-11T03:09:12.000Z,0
2023-05-11T03:10:28.000Z,0
2023-05-11T03:11:44.427Z,0
2023-05-11T03:13:00.000Z,5
2023-05-11T03:14:43.000Z,5
2023-05-11T03:15:33.012Z,5
2023-05-11T03:16:31.212Z,5
2023-05-11T03:17:47.405Z,5
2023-05-11T03:19:21.598Z,5
2023-05-11T03:20:37.792Z,5
2023-05-11T03:21:53.969Z,11
2023-05-11T03:23:09.182Z,11
2023-05-11T03:24:07.387Z,11
2023-05-11T03:25:41.000Z,11
2023-05-11T03:27:24.000Z,11
2023-05-11T03:28:13.000Z,16
2023-05-11T03:29:12.159Z,16
2023-05-11T03:30:46.352Z,16
2023-05-11T03:32:02.545Z,16
2023-05-11T03:33:18.737Z,22
2023-05-11T03:34:34.929Z,22
2023-05-11T03:35:51.000Z,22
2023-05-11T03:36:49.317Z,22
2023-05-11T03:38:23.497Z,28
2023-05-11T03:39:20.719Z,28
2023-05-11T03:41:21.000Z,28
2023-05-11T03:41:53.105Z,33
2023-05-11T03:43:27.299Z,33
2023-05-11T03:44:43.000Z,39
2023-05-11T03:45:59.674Z,39
2023-05-11T03:47:15.862Z,39
2023-05-11T03:48:32.000Z,45
2023-05-11T03:49:30.263Z,45
2023-05-11T03:51:04.456Z,45
2023-05-11T03:52:20.636Z,50
2023-05-11T03:53:36.835Z,50
2023-05-11T03:54:35.037Z,56
2023-05-11T03:56:09.000Z,67
2023-05-11T03:57:25.000Z,78
2023-05-11T03:58:41.000Z,67
2023-05-11T03:59:57.808Z,67
2023-05-11T04:01:13.005Z,61
2023-05-11T04:02:29.199Z,67
2023-05-11T04:03:45.404Z,67
2023-05-11T04:05:01.599Z,73
2023-05-11T04:06:17.000Z,73
2023-05-11T04:07:15.983Z,73
2023-05-11T04:08:50.000Z,78
2023-05-11T04:10:06.369Z,78
2023-05-11T04:11:04.562Z,84
2023-05-11T04:12:38.748Z,84
2023-05-11T04:13:54.000Z,84
2023-05-11T04:15:11.000Z,84
2023-05-11T04:16:27.333Z,84
2023-05-11T04:17:42.532Z,90
2023-05-11T04:18:58.000Z,90
2023-05-11T04:20:14.916Z,95
2023-05-11T04:21:31.000Z,95
2023-05-11T04:22:47.000Z,95
2023-05-11T04:24:03.000Z,101
2023-05-11T04:25:19.000Z,101
2023-05-11T04:26:35.000Z,106
2023-05-11T04:27:52.000Z,106
2023-05-11T04:29:08.282Z,106
2023-05-11T04:30:06.475Z,112
2023-05-11T04:31:40.658Z,112
2023-05-11T04:32:56.853Z,112
2023-05-11T04:34:13.000Z,118
2023-05-11T04:35:29.374Z,118
2023-05-11T04:36:45.567Z,118
2023-05-11T04:38:01.743Z,123
2023-05-11T04:39:17.948Z,123
2023-05-11T04:40:34.131Z,123
2023-05-11T04:41:50.000Z,129
2023-05-11T04:43:06.532Z,129
2023-05-11T04:44:22.000Z,129
2023-05-11T04:45:20.918Z,135
2023-05-11T04:46:55.101Z,135
2023-05-11T04:48:11.305Z,135
2023-05-11T04:49:27.000Z,135
2023-05-11T04:50:42.000Z,140
2023-05-11T04:51:58.000Z,140
2023-05-11T04:53:15.081Z,140
2023-05-11T04:54:31.000Z,146
2023-05-11T04:55:47.477Z,146
2023-05-11T04:57:03.663Z,146
2023-05-11T04:58:01.863Z,146
2023-05-11T04:59:36.000Z,151
2023-05-11T05:00:52.000Z,151
2023-05-11T05:02:08.435Z,151
2023-05-11T05:03:24.635Z,151
2023-05-11T05:04:40.000Z,157
2023-05-11T05:05:57.000Z,157
2023-05-11T05:07:13.000Z,157
2023-05-11T05:08:29.397Z,157
2023-05-11T05:09:44.606Z,163
2023-05-11T05:11:00.815Z,163
2023-05-11T05:12:17.007Z,163
2023-05-11T05:13:33.000Z,168
2023-05-11T05:14:49.000Z,168
2023-05-11T05:16:05.585Z,168
2023-05-11T05:17:21.781Z,168
2023-05-11T05:18:37.000Z,174
2023-05-11T05:19:54.167Z,174
2023-05-11T05:20:52.361Z,174
2023-05-11T05:22:26.000Z,174
2023-05-11T05:24:09.000Z,180
2023-05-11T05:24:58.937Z,185
2023-05-11T05:26:15.000Z,180
2023-05-11T05:27:31.000Z,180
2023-05-11T05:28:47.513Z,180
2023-05-11T05:30:02.000Z,185
2023-05-11T05:31:00.923Z,185
2023-05-11T05:32:35.108Z,185
2023-05-11T05:33:33.311Z,185
2023-05-11T05:35:07.000Z,185
2023-05-11T05:36:23.694Z,185
2023-05-11T05:37:39.891Z,185
2023-05-11T05:38:56.085Z,185
2023-05-11T05:40:38.000Z,185
2023-05-11T05:41:28.471Z,180
2023-05-11T05:42:44.000Z,151
2023-05-11T05:44:00.000Z,157
2023-05-11T05:45:17.052Z,168
2023-05-11T05:46:15.246Z,168
2023-05-11T05:47:49.439Z,174
2023-05-11T05:48:47.632Z,191
2023-05-11T05:50:21.000Z,191
2023-05-11T05:51:38.000Z,191
2023-05-11T05:52:54.000Z,191
2023-05-11T05:54:10.000Z,196
2023-05-11T05:55:26.000Z,196
2023-05-11T05:56:42.000Z,196
2023-05-11T05:57:58.000Z,196
2023-05-11T05:58:56.193Z,196
2023-05-11T06:00:30.000Z,202
2023-05-11T06:01:28.581Z,202
2023-05-11T06:03:02.000Z,208
2023-05-11T06:04:18.000Z,202
2023-05-11T06:05:35.161Z,202
2023-05-11T06:06:51.339Z,208
2023-05-11T06:08:07.000Z,208
2023-05-11T06:09:23.741Z,208
2023-05-11T06:10:39.000Z,208
2023-05-11T06:11:56.117Z,208
2023-05-11T06:13:12.000Z,213
2023-05-11T06:14:28.514Z,213
2023-05-11T06:15:44.000Z,213
2023-05-11T06:17:00.000Z,219
2023-05-11T06:18:17.091Z,213
2023-05-11T06:19:33.000Z,213
2023-05-11T06:20:49.479Z,219
2023-05-11T06:22:05.000Z,219
2023-05-11T06:23:21.000Z,219
2023-05-11T06:24:38.043Z,219
2023-05-11T06:25:53.252Z,219
2023-05-11T06:27:09.445Z,225
2023-05-11T06:28:07.653Z,219
2023-05-11T06:29:41.845Z,219
2023-05-11T06:30:58.000Z,230
2023-05-11T06:32:14.219Z,225
2023-05-11T06:33:30.412Z,225
2023-05-11T06:34:28.616Z,225
2023-05-11T06:36:29.000Z,225
2023-05-11T06:37:01.003Z,225
2023-05-11T06:38:35.000Z,225
2023-05-11T06:39:51.371Z,230
2023-05-11T06:41:07.581Z,230
2023-05-11T06:42:22.789Z,230
2023-05-11T06:43:38.000Z,230
2023-05-11T06:44:55.000Z,230
2023-05-11T06:46:11.000Z,230
2023-05-11T06:47:27.562Z,230
2023-05-11T06:48:43.747Z,230
2023-05-11T06:49:59.000Z,230
2023-05-11T06:51:16.000Z,236
2023-05-11T06:52:14.332Z,236
2023-05-11T06:53:48.000Z,236
2023-05-11T06:55:04.718Z,236
2023-05-11T06:56:20.906Z,236
2023-05-11T06:57:37.100Z,236
2023-05-11T06:58:53.296Z,236
2023-05-11T07:00:09.476Z,236
2023-05-11T07:01:25.000Z,236
2023-05-11T07:03:08.000Z,241
2023-05-11T07:03:58.000Z,241
2023-05-11T07:04:56.380Z,241
2023-05-11T07:06:30.572Z,241
2023-05-11T07:07:46.000Z,241
2023-05-11T07:09:02.000Z,241
2023-05-11T07:10:19.145Z,241
2023-05-11T07:11:35.344Z,241
2023-05-11T07:12:51.525Z,241
2023-05-11T07:14:07.000Z,253
2023-05-11T07:15:05.921Z,247
2023-05-11T07:16:40.000Z,247
2023-05-11T07:17:56.302Z,247
2023-05-11T07:19:11.502Z,247
2023-05-11T07:20:27.000Z,247
2023-05-11T07:21:43.000Z,247
2023-05-11T07:23:00.078Z,247
2023-05-11T07:24:16.000Z,247
2023-05-11T07:25:32.472Z,247
2023-05-11T07:26:48.663Z,247
2023-05-11T07:28:04.850Z,247
2023-05-11T07:29:21.000Z,253
2023-05-11T07:30:37.237Z,253
2023-05-11T07:31:53.000Z,253
2023-05-11T07:33:09.000Z,253
2023-05-11T07:34:25.000Z,253
2023-05-11T07:35:41.025Z,253
2023-05-11T07:36:57.000Z,253
2023-05-11T07:38:13.420Z,253
2023-05-11T07:39:29.000Z,253
2023-05-11T07:40:27.808Z,253
2023-05-11T07:42:01.990Z,253
2023-05-11T07:43:00.195Z,253
2023-05-11T07:44:34.000Z,253
2023-05-11T07:45:50.000Z,258
2023-05-11T07:47:06.000Z,258
2023-05-11T07:48:22.962Z,258
2023-05-11T07:49:39.155Z,258
2023-05-11T07:50:55.000Z,258
2023-05-11T07:52:11.000Z,258
2023-05-11T07:53:27.739Z,264
2023-05-11T07:54:43.000Z,258
2023-05-11T07:56:00.124Z,258
2023-05-11T07:57:16.317Z,258
2023-05-11T07:58:32.000Z,258
2023-05-11T08:00:15.000Z,258
2023-05-11T08:01:04.000Z,258
2023-05-11T08:02:21.000Z,258
2023-05-11T08:03:37.267Z,264
2023-05-11T08:04:53.475Z,258
2023-05-11T08:06:09.669Z,258
2023-05-11T08:07:25.857Z,258
2023-05-11T08:08:24.054Z,258
2023-05-11T08:09:58.000Z,258
2023-05-11T08:11:14.440Z,258
2023-05-11T08:12:30.000Z,258
2023-05-11T08:13:46.827Z,258
2023-05-11T08:15:03.000Z,264
2023-05-11T08:16:19.208Z,264
2023-05-11T08:17:35.000Z,264
2023-05-11T08:18:51.000Z,264
2023-05-11T08:20:06.000Z,264
2023-05-11T08:21:22.987Z,264
2023-05-11T08:22:39.000Z,264
2023-05-11T08:23:55.388Z,264
2023-05-11T08:25:11.581Z,264
2023-05-11T08:26:27.766Z,264
2023-05-11T08:27:43.000Z,264
2023-05-11T08:29:00.000Z,264
2023-05-11T08:30:16.000Z,264
2023-05-11T08:31:32.547Z,264
2023-05-11T08:32:48.000Z,264
2023-05-11T08:34:04.000Z,275
2023-05-11T08:35:21.113Z,264
2023-05-11T08:36:36.336Z,264
2023-05-11T08:37:52.526Z,264
2023-05-11T08:39:08.000Z,264
2023-05-11T08:40:24.000Z,264
2023-05-11T08:41:41.109Z,264
2023-05-11T08:42:57.295Z,264
2023-05-11T08:44:13.000Z,264
2023-05-11T08:45:29.000Z,264
2023-05-11T08:46:27.886Z,264
2023-05-11T08:48:02.000Z,264
2023-05-11T08:49:18.272Z,264
2023-05-11T08:50:34.000Z,264
2023-05-11T08:51:50.000Z,264
2023-05-11T08:53:06.000Z,270
2023-05-11T08:54:23.000Z,270
2023-05-11T08:55:39.000Z,275
2023-05-11T08:56:55.418Z,270
2023-05-11T08:58:10.643Z,270
2023-05-11T08:59:08.844Z,264
2023-05-11T09:00:43.000Z,264
2023-05-11T09:01:59.000Z,270
2023-05-11T09:03:15.000Z,258
2023-05-11T09:04:31.613Z,270
2023-05-11T09:05:47.811Z,270
2023-05-11T09:07:04.000Z,270
2023-05-11T09:08:20.000Z,270
2023-05-11T09:09:36.000Z,275
2023-05-11T09:10:52.000Z,270
2023-05-11T09:12:08.000Z,270
2023-05-11T09:13:24.960Z,292
2023-05-11T09:14:40.000Z,270
2023-05-11T09:15:56.000Z,270
2023-05-11T09:17:12.000Z,286
2023-05-11T09:18:28.000Z,270
2023-05-11T09:19:44.000Z,270
2023-05-11T09:21:01.000Z,281
2023-05-11T09:22:17.000Z,281
2023-05-11T09:23:33.000Z,286
2023-05-11T09:24:31.727Z,286
2023-05-11T09:26:05.920Z,292
2023-05-11T09:27:22.000Z,298
2023-05-11T09:28:38.290Z,298
2023-05-11T09:29:54.000Z,196
2023-05-11T09:31:10.000Z,196
2023-05-11T09:32:26.000Z,303
2023-05-11T09:33:43.000Z,298
2023-05-11T09:34:59.000Z,315
2023-05-11T09:36:15.448Z,303
2023-05-11T09:37:31.000Z,303
2023-05-11T09:38:47.000Z,303
2023-05-11T09:40:04.000Z,303
2023-05-11T09:41:20.234Z,331
2023-05-11T09:42:36.422Z,320
2023-05-11T09:43:51.637Z,309
2023-05-11T09:45:07.826Z,309
2023-05-11T09:46:24.000Z,315
2023-05-11T09:47:40.000Z,225
2023-05-11T09:48:56.000Z,208
2023-05-11T09:49:54.603Z,303
2023-05-11T09:51:28.784Z,315
2023-05-11T09:52:44.989Z,315
2023-05-11T09:54:01.182Z,315
2023-05-11T09:55:43.000Z,315
2023-05-11T09:56:33.000Z,281
2023-05-11T09:57:49.746Z,309
2023-05-11T09:59:05.945Z,315
2023-05-11T10:00:21.157Z,236
2023-05-11T10:01:37.000Z,320
2023-05-11T10:02:35.552Z,326
2023-05-11T10:04:09.000Z,331
2023-05-11T10:05:25.000Z,331
2023-05-11T10:06:42.000Z,326
2023-05-11T10:07:58.000Z,326
2023-05-11T10:09:14.516Z,320
2023-05-11T10:10:30.702Z,320
2023-05-11T10:11:46.000Z,320
2023-05-11T10:13:03.089Z,326
2023-05-11T10:14:19.279Z,337
2023-05-11T10:15:35.482Z,320
2023-05-11T10:16:51.664Z,331
2023-05-11T10:18:07.869Z,326
2023-05-11T10:19:24.000Z,337
2023-05-11T10:20:40.000Z,326
2023-05-11T10:21:56.442Z,326
2023-05-11T10:23:11.653Z,337
2023-05-11T10:24:27.851Z,343
2023-05-11T10:25:44.000Z,320
2023-05-11T10:27:00.000Z,343
2023-05-11T10:28:16.415Z,331
2023-05-11T10:29:32.000Z,309
2023-05-11T10:30:48.000Z,236
2023-05-11T10:32:05.000Z,298
2023-05-11T10:33:21.203Z,320
2023-05-11T10:34:37.000Z,247
2023-05-11T10:35:53.582Z,270
2023-05-11T10:37:09.000Z,247
2023-05-11T10:38:25.000Z,270
2023-05-11T10:39:42.000Z,253
2023-05-11T10:40:58.000Z,241
2023-05-11T10:42:14.000Z,247
2023-05-11T10:43:30.747Z,264
2023-05-11T10:44:46.923Z,320
2023-05-11T10:46:02.000Z,399
2023-05-11T10:47:18.000Z,388
2023-05-11T10:48:34.536Z,348
2023-05-11T10:49:50.729Z,303
2023-05-11T10:50:48.922Z,292
2023-05-11T10:52:23.000Z,281
2023-05-11T10:53:39.000Z,281
2023-05-11T10:54:55.502Z,281
2023-05-11T10:56:11.000Z,388
2023-05-11T10:57:27.000Z,326
2023-05-11T10:58:44.000Z,264
2023-05-11T11:00:00.259Z,264
2023-05-11T11:01:16.000Z,258
2023-05-11T11:02:32.000Z,253
2023-05-11T11:03:30.859Z,258
2023-05-11T11:05:05.000Z,270
2023-05-11T11:06:21.240Z,303
2023-05-11T11:07:36.000Z,393
2023-05-11T11:08:52.653Z,399
2023-05-11T11:10:08.000Z,399
2023-05-11T11:11:25.000Z,292
2023-05-11T11:12:41.000Z,376
2023-05-11T11:13:57.000Z,388
2023-05-11T11:15:13.627Z,360
2023-05-11T11:16:29.809Z,399
2023-05-11T11:17:46.000Z,275
2023-05-11T11:18:44.212Z,264
2023-05-11T11:20:18.396Z,264
2023-05-11T11:21:34.602Z,264
2023-05-11T11:23:17.000Z,258
2023-05-11T11:24:07.112Z,275
2023-05-11T11:25:49.000Z,298
2023-05-11T11:26:39.000Z,427
2023-05-11T11:27:55.000Z,427
2023-05-11T11:29:11.895Z,286
2023-05-11T11:30:54.000Z,455
2023-05-11T11:31:44.282Z,320
2023-05-11T11:33:00.000Z,444
2023-05-11T11:34:16.000Z,438
2023-05-11T11:35:32.000Z,270
2023-05-11T11:36:49.066Z,258
2023-05-11T11:38:05.262Z,253
2023-05-11T11:39:21.000Z,241
2023-05-11T11:40:37.000Z,236
2023-05-11T11:41:53.000Z,241
2023-05-11T11:43:10.043Z,236
2023-05-11T11:44:26.229Z,236
2023-05-11T11:45:41.444Z,236
2023-05-11T11:46:57.643Z,236
2023-05-11T11:48:13.823Z,230
2023-05-11T11:49:30.027Z,230
2023-05-11T11:50:46.000Z,225
2023-05-11T11:52:02.419Z,230
2023-05-11T11:53:18.618Z,225
2023-05-11T11:54:34.000Z,219
2023-05-11T11:55:51.000Z,219
2023-05-11T11:57:07.000Z,230
2023-05-11T11:58:23.398Z,202
2023-05-11T11:59:39.592Z,196
2023-05-11T12:00:55.000Z,191
2023-05-11T12:02:11.975Z,185
2023-05-11T12:03:54.000Z,185
2023-05-11T12:04:44.000Z,185
2023-05-11T12:06:00.567Z,185
2023-05-11T12:07:16.762Z,185
2023-05-11T12:08:32.000Z,180
2023-05-11T12:09:49.134Z,185
2023-05-11T12:11:04.362Z,185
2023-05-11T12:12:20.556Z,185
2023-05-11T12:13:36.000Z,185
2023-05-11T12:14:52.941Z,191
2023-05-11T12:16:09.000Z,196
2023-05-11T12:17:25.000Z,196
2023-05-11T12:18:41.000Z,208
2023-05-11T12:19:57.714Z,213
2023-05-11T12:21:13.000Z,219
2023-05-11T12:22:12.112Z,225
2023-05-11T12:23:46.288Z,230
2023-05-11T12:25:02.000Z,230
2023-05-11T12:26:18.696Z,309
2023-05-11T12:27:34.000Z,427
2023-05-11T12:28:51.069Z,472
2023-05-11T12:30:07.268Z,450
2023-05-11T12:31:23.460Z,461
2023-05-11T12:32:38.673Z,461
2023-05-11T12:33:54.881Z,393
2023-05-11T12:35:11.071Z,405
2023-05-11T12:36:27.000Z,365
2023-05-11T12:37:43.000Z,360
2023-05-11T12:38:59.000Z,354
2023-05-11T12:40:15.000Z,337
2023-05-11T12:41:32.000Z,360
2023-05-11T12:42:48.000Z,376
2023-05-11T12:44:04.000Z,371
2023-05-11T12:45:02.637Z,371
2023-05-11T12:46:36.824Z,337
2023-05-11T12:47:53.026Z,320
2023-05-11T12:49:08.000Z,309
2023-05-11T12:50:24.000Z,309
2023-05-11T12:51:40.000Z,315
2023-05-11T12:52:56.814Z,309
2023-05-11T12:54:13.010Z,315
2023-05-11T12:55:29.000Z,331
2023-05-11T12:56:45.000Z,343
2023-05-11T12:57:43.605Z,320
2023-05-11T12:59:17.000Z,309
2023-05-11T13:01:00.000Z,292
2023-05-11T13:01:50.177Z,298
2023-05-11T13:03:06.000Z,292
2023-05-11T13:04:22.000Z,292
2023-05-11T13:05:38.000Z,292
2023-05-11T13:06:54.972Z,292
2023-05-11T13:08:11.159Z,298
2023-05-11T13:09:27.000Z,303
2023-05-11T13:10:42.564Z,309
2023-05-11T13:12:25.000Z,331
2023-05-11T13:13:14.953Z,365
2023-05-11T13:14:31.000Z,371
2023-05-11T13:15:47.000Z,388
2023-05-11T13:17:03.667Z,416
2023-05-11T13:18:19.870Z,376
2023-05-11T13:19:36.066Z,399
2023-05-11T13:20:52.261Z,405
2023-05-11T13:22:08.000Z,376
2023-05-11T13:23:24.631Z,371
2023-05-11T13:24:40.828Z,388
2023-05-11T13:25:57.022Z,590
2023-05-11T13:27:13.000Z,421
2023-05-11T13:28:29.432Z,1321
2023-05-11T13:29:45.000Z,1451
2023-05-11T13:31:01.822Z,376
2023-05-11T13:32:18.001Z,326
2023-05-11T13:33:34.000Z,331
2023-05-11T13:35:16.000Z,337
2023-05-11T13:36:06.593Z,320
2023-05-11T13:37:21.000Z,315
2023-05-11T13:38:20.009Z,315
2023-05-11T13:39:54.204Z,320
2023-05-11T13:41:10.399Z,309
2023-05-11T13:42:53.000Z,309
2023-05-11T13:43:42.000Z,320
2023-05-11T13:44:58.000Z,320
2023-05-11T13:46:15.000Z,315
2023-05-11T13:47:31.368Z,315
2023-05-11T13:48:47.561Z,320
2023-05-11T13:50:30.000Z,315
2023-05-11T13:51:19.000Z,315
2023-05-11T13:52:36.000Z,315
2023-05-11T13:53:52.000Z,326
2023-05-11T13:55:08.546Z,337
2023-05-11T13:56:24.859Z,331
2023-05-11T13:57:41.000Z,337
2023-05-11T13:58:57.000Z,331
2023-05-11T14:00:13.000Z,331
2023-05-11T14:01:29.642Z,326
2023-05-11T14:02:45.827Z,326
2023-05-11T14:04:02.030Z,315
2023-05-11T14:05:18.000Z,298
2023-05-11T14:06:34.426Z,286
2023-05-11T14:07:50.621Z,281
2023-05-11T14:09:06.000Z,275
2023-05-11T14:10:23.006Z,275
2023-05-11T14:11:39.000Z,275
2023-05-11T14:12:55.000Z,281
2023-05-11T14:14:11.577Z,281
2023-05-11T14:15:26.000Z,286
2023-05-11T14:16:42.995Z,281
2023-05-11T14:17:59.197Z,286
2023-05-11T14:19:15.393Z,286
2023-05-11T14:20:31.588Z,292
2023-05-11T14:21:47.764Z,298
2023-05-11T14:23:03.000Z,309
2023-05-11T14:24:20.000Z,309
2023-05-11T14:25:36.367Z,337
2023-05-11T14:26:52.547Z,331
2023-05-11T14:28:08.000Z,326
2023-05-11T14:29:24.940Z,348
2023-05-11T14:30:41.000Z,393
2023-05-11T14:31:57.000Z,343
2023-05-11T14:33:13.525Z,326
2023-05-11T14:34:29.732Z,320
2023-05-11T14:35:45.000Z,315
2023-05-11T14:37:02.000Z,315
2023-05-11T14:38:18.000Z,320
2023-05-11T14:39:34.496Z,320
2023-05-11T14:40:49.718Z,331
2023-05-11T14:42:05.000Z,343
2023-05-11T14:43:22.000Z,495
2023-05-11T14:44:38.308Z,444
2023-05-11T14:45:54.503Z,348
2023-05-11T14:47:10.000Z,348
2023-05-11T14:48:26.875Z,354
2023-05-11T14:49:43.088Z,427
2023-05-11T14:50:59.000Z,483
2023-05-11T14:52:15.470Z,450
2023-05-11T14:53:31.000Z,517
2023-05-11T14:54:29.868Z,511
2023-05-11T14:56:04.064Z,348
2023-05-11T14:57:20.000Z,343
2023-05-11T14:58:36.000Z,348
2023-05-11T14:59:52.000Z,343
2023-05-11T15:01:07.861Z,354
2023-05-11T15:02:24.055Z,360
2023-05-11T15:03:40.234Z,337
2023-05-11T15:04:56.436Z,331
2023-05-11T15:06:12.000Z,326
2023-05-11T15:07:28.823Z,320
2023-05-11T15:08:45.000Z,309
2023-05-11T15:10:01.226Z,303
2023-05-11T15:11:17.421Z,303
2023-05-11T15:12:33.602Z,309
2023-05-11T15:13:49.812Z,303
2023-05-11T15:15:06.000Z,309
2023-05-11T15:16:22.189Z,309
2023-05-11T15:17:37.413Z,309
2023-05-11T15:18:53.602Z,309
2023-05-11T15:20:09.000Z,315
2023-05-11T15:21:26.000Z,315
2023-05-11T15:22:42.195Z,320
2023-05-11T15:23:58.000Z,315
2023-05-11T15:25:14.000Z,320
2023-05-11T15:26:30.774Z,320
2023-05-11T15:27:46.000Z,315
2023-05-11T15:29:03.000Z,309
2023-05-11T15:30:19.355Z,303
2023-05-11T15:31:35.000Z,303
2023-05-11T15:32:33.758Z,298
2023-05-11T15:34:07.947Z,298
2023-05-11T15:35:23.000Z,292
2023-05-11T15:36:39.000Z,292
2023-05-11T15:37:55.000Z,292
2023-05-11T15:39:11.000Z,286
2023-05-11T15:40:27.938Z,292
2023-05-11T15:41:44.133Z,292
2023-05-11T15:42:42.337Z,292
2023-05-11T15:44:16.534Z,298
2023-05-11T15:45:14.728Z,298
2023-05-11T15:46:48.000Z,286
2023-05-11T15:48:05.000Z,286
2023-05-11T15:49:21.000Z,292
2023-05-11T15:50:37.505Z,286
2023-05-11T15:51:53.000Z,281
2023-05-11T15:53:09.000Z,275
2023-05-11T15:54:26.000Z,270
2023-05-11T15:55:24.410Z,264
2023-05-11T15:56:58.590Z,264
2023-05-11T15:57:56.800Z,264
2023-05-11T15:59:30.997Z,270
2023-05-11T16:00:47.000Z,264
2023-05-11T16:02:03.387Z,264
2023-05-11T16:03:19.564Z,258
2023-05-11T16:04:35.774Z,253
2023-05-11T16:05:51.956Z,247
2023-05-11T16:07:08.000Z,241
2023-05-11T16:08:24.346Z,230
2023-05-11T16:09:40.000Z,225
2023-05-11T16:10:56.000Z,219
2023-05-11T16:12:11.949Z,208
2023-05-11T16:13:28.000Z,202
2023-05-11T16:14:44.000Z,196
2023-05-11T16:16:00.537Z,191
2023-05-11T16:17:16.745Z,191
2023-05-11T16:18:32.939Z,185
2023-05-11T16:19:49.000Z,180
2023-05-11T16:21:05.310Z,180
2023-05-11T16:22:48.000Z,174
2023-05-11T16:23:19.719Z,174
2023-05-11T16:24:53.000Z,168
2023-05-11T16:26:10.000Z,168
2023-05-11T16:27:26.000Z,163
2023-05-11T16:28:42.492Z,157
2023-05-11T16:29:57.711Z,157
2023-05-11T16:30:55.906Z,157
2023-05-11T16:32:30.000Z,151
2023-05-11T16:33:46.277Z,151
2023-05-11T16:35:02.000Z,151
2023-05-11T16:36:00.685Z,151
2023-05-11T16:37:34.000Z,151
2023-05-11T16:38:51.074Z,151
2023-05-11T16:40:07.000Z,151
2023-05-11T16:41:23.464Z,151
2023-05-11T16:42:39.660Z,157
2023-05-11T16:43:55.854Z,163
2023-05-11T16:45:12.049Z,163
2023-05-11T16:46:28.240Z,174
2023-05-11T16:47:43.000Z,196
2023-05-11T16:48:59.630Z,343
2023-05-11T16:50:15.830Z,399
2023-05-11T16:51:32.000Z,427
2023-05-11T16:52:48.000Z,658
2023-05-11T16:54:04.412Z,1451
2023-05-11T16:55:20.624Z,1856
2023-05-11T16:56:36.000Z,1833
2023-05-11T16:57:53.012Z,1603
2023-05-11T16:59:09.190Z,382
2023-05-11T17:00:51.000Z,275
2023-05-11T17:01:23.599Z,253
2023-05-11T17:02:57.795Z,241
2023-05-11T17:04:13.989Z,230
2023-05-11T17:05:30.172Z,219
2023-05-11T17:06:45.377Z,208
2023-05-11T17:08:01.000Z,202
2023-05-11T17:08:59.787Z,196
2023-05-11T17:10:33.000Z,196
2023-05-11T17:11:50.160Z,191
2023-05-11T17:13:06.370Z,185
2023-05-11T17:14:04.567Z,174
2023-05-11T17:15:38.764Z,168
2023-05-11T17:16:54.000Z,157
2023-05-11T17:18:11.000Z,157
2023-05-11T17:19:27.349Z,157
2023-05-11T17:20:43.000Z,151
2023-05-11T17:21:59.728Z,151
2023-05-11T17:23:16.000Z,146
2023-05-11T17:24:32.249Z,140
2023-05-11T17:25:48.000Z,146
2023-05-11T17:26:46.638Z,146
2023-05-11T17:28:20.817Z,146
2023-05-11T17:29:37.000Z,135
2023-05-11T17:30:53.000Z,129
2023-05-11T17:32:08.000Z,123
2023-05-11T17:33:24.000Z,118
2023-05-11T17:34:40.000Z,112
2023-05-11T17:35:57.000Z,112
2023-05-11T17:37:13.000Z,106
2023-05-11T17:38:29.415Z,106
2023-05-11T17:39:45.589Z,106
2023-05-11T17:41:01.805Z,118
2023-05-11T17:42:18.000Z,95
2023-05-11T17:43:34.194Z,90